createdAt,value
2023-11-26T00:00:40.541Z,98140.73
2023-11-26T00:03:28.984Z,98141.59
2023-11-26T00:05:57.608Z,98138.80
2023-11-26T00:08:26.200Z,98149.08
2023-11-26T00:10:56.407Z,98150.05
2023-11-26T00:13:25.693Z,98146.16
2023-11-26T00:15:54.230Z,98144.23
2023-11-26T00:18:22.881Z,98143.95
2023-11-26T00:20:51.282Z,98148.01
2023-11-26T00:23:19.816Z,98148.04
2023-11-26T00:25:48.101Z,98148.41
2023-11-26T00:28:16.705Z,98154.39
2023-11-26T00:30:45.271Z,98157.73
2023-11-26T00:33:13.882Z,98151.13
2023-11-26T00:35:43.035Z,98149.92
2023-11-26T00:38:11.732Z,98151.23
2023-11-26T00:40:40.916Z,98146.39
2023-11-26T00:43:12.041Z,98146.37
2023-11-26T00:45:42.102Z,98150.69
2023-11-26T00:48:11.396Z,98149.27
2023-11-26T00:50:39.821Z,98148.20
2023-11-26T00:53:08.388Z,98149.74
2023-11-26T00:55:37.196Z,98155.50
2023-11-26T00:58:05.991Z,98156.08
2023-11-26T01:00:34.543Z,98157.98
2023-11-26T01:03:03.153Z,98154.33
2023-11-26T01:05:31.896Z,98156.27
2023-11-26T01:08:02.503Z,98157.95
2023-11-26T01:10:30.959Z,98160.70
2023-11-26T01:12:59.379Z,98158.79
2023-11-26T01:15:28.116Z,98167.91
2023-11-26T01:17:57.162Z,98173.38
2023-11-26T01:20:26.259Z,98174.88
2023-11-26T01:22:54.877Z,98183.87
2023-11-26T01:25:24.054Z,98191.89
2023-11-26T01:27:52.621Z,98196.22
2023-11-26T01:30:22.646Z,98203.95
2023-11-26T01:32:51.366Z,98206.83
2023-11-26T01:35:19.900Z,98212.77
2023-11-26T01:37:48.446Z,98213.41
2023-11-26T01:40:16.931Z,98214.62
2023-11-26T01:42:45.951Z,98221.32
2023-11-26T01:45:14.661Z,98226.80
2023-11-26T01:47:43.644Z,98234.09
2023-11-26T01:50:21.395Z,98235.11
2023-11-26T01:52:54.847Z,98230.86
2023-11-26T01:55:23.579Z,98228.69
2023-11-26T01:57:54.049Z,98225.58
2023-11-26T02:00:23.278Z,98227.79
2023-11-26T02:02:52.290Z,98227.98
2023-11-26T02:05:21.106Z,98230.14
2023-11-26T02:07:49.648Z,98231.06
2023-11-26T02:10:18.083Z,98233.42
2023-11-26T02:13:06.461Z,98229.90
2023-11-26T02:15:36.044Z,98224.40
2023-11-26T02:18:04.963Z,98224.65
2023-11-26T02:20:34.279Z,98224.31
2023-11-26T02:23:02.867Z,98220.83
2023-11-26T02:25:33.014Z,98222.01
2023-11-26T02:28:01.671Z,98219.79
2023-11-26T02:30:30.610Z,98219.35
2023-11-26T02:33:00.179Z,98222.41
2023-11-26T02:35:28.935Z,98217.16
2023-11-26T02:37:58.167Z,98216.83
2023-11-26T02:40:26.838Z,98215.52
2023-11-26T02:42:58.029Z,98219.11
2023-11-26T02:45:26.983Z,98212.87
2023-11-26T02:47:55.527Z,98210.88
2023-11-26T02:50:26.181Z,98207.26
2023-11-26T02:52:54.691Z,98204.31
2023-11-26T02:55:23.376Z,98205.49
2023-11-26T02:57:52.122Z,98206.63
2023-11-26T03:00:21.901Z,98208.90
2023-11-26T03:02:50.700Z,98209.86
2023-11-26T03:05:20.024Z,98214.99
2023-11-26T03:07:53.573Z,98215.82
2023-11-26T03:10:40.715Z,98214.61
2023-11-26T03:13:13.886Z,98224.89
2023-11-26T03:15:43.675Z,98225.96
2023-11-26T03:18:14.714Z,98228.42
2023-11-26T03:20:44.154Z,98226.09
2023-11-26T03:23:14.712Z,98225.32
2023-11-26T03:25:43.619Z,98227.60
2023-11-26T03:28:12.214Z,98231.08
2023-11-26T03:30:40.711Z,98231.00
2023-11-26T03:33:09.568Z,98230.58
2023-11-26T03:35:38.374Z,98235.11
2023-11-26T03:38:06.917Z,98235.07
2023-11-26T03:40:36.334Z,98235.19
2023-11-26T03:43:05.870Z,98241.44
2023-11-26T03:45:35.015Z,98241.35
2023-11-26T03:48:03.678Z,98239.39
2023-11-26T03:50:32.450Z,98245.77
2023-11-26T03:53:01.235Z,98240.32
2023-11-26T03:55:30.487Z,98241.40
2023-11-26T03:57:59.105Z,98242.04
2023-11-26T04:00:28.154Z,98243.30
2023-11-26T04:02:56.883Z,98240.82
2023-11-26T04:05:26.916Z,98244.17
2023-11-26T04:07:55.362Z,98245.52
2023-11-26T04:10:31.175Z,98242.05
2023-11-26T04:13:05.159Z,98241.00
2023-11-26T04:15:33.659Z,98242.57
2023-11-26T04:18:02.200Z,98244.61
2023-11-26T04:20:30.829Z,98239.36
2023-11-26T04:22:59.670Z,98238.20
2023-11-26T04:25:28.415Z,98235.74
2023-11-26T04:27:57.141Z,98234.70
2023-11-26T04:30:25.595Z,98239.39
2023-11-26T04:32:53.909Z,98245.32
2023-11-26T04:35:22.416Z,98238.95
2023-11-26T04:37:50.788Z,98240.86
2023-11-26T04:40:21.804Z,98240.08
2023-11-26T04:42:50.175Z,98241.83
2023-11-26T04:45:18.508Z,98238.66
2023-11-26T04:47:48.159Z,98242.45
2023-11-26T04:50:16.774Z,98244.29
2023-11-26T04:52:45.071Z,98247.29
2023-11-26T04:55:13.952Z,98245.02
2023-11-26T04:57:42.278Z,98248.70
2023-11-26T05:00:13.190Z,98249.62
2023-11-26T05:02:42.204Z,98247.20
2023-11-26T05:05:11.825Z,98244.55
2023-11-26T05:07:41.025Z,98257.02
2023-11-26T05:10:11.006Z,98257.23
2023-11-26T05:12:39.606Z,98257.89
2023-11-26T05:15:08.593Z,98264.91
2023-11-26T05:17:37.204Z,98264.18
2023-11-26T05:20:07.049Z,98265.52
2023-11-26T05:22:35.681Z,98272.66
2023-11-26T05:25:04.412Z,98283.65
2023-11-26T05:27:33.029Z,98289.75
2023-11-26T05:30:02.643Z,98292.27
2023-11-26T05:32:31.241Z,98293.27
2023-11-26T05:34:59.997Z,98290.34
2023-11-26T05:37:28.484Z,98298.83
2023-11-26T05:39:56.919Z,98307.36
2023-11-26T05:42:25.852Z,98316.66
2023-11-26T05:44:54.487Z,98320.08
2023-11-26T05:47:23.849Z,98322.79
2023-11-26T05:49:54.854Z,98320.23
2023-11-26T05:52:23.935Z,98319.35
2023-11-26T05:54:55.476Z,98323.05
2023-11-26T05:57:25.051Z,98325.83
2023-11-26T05:59:53.714Z,98324.27
2023-11-26T06:02:22.162Z,98332.55
2023-11-26T06:04:50.554Z,98333.31
2023-11-26T06:07:19.460Z,98334.14
2023-11-26T06:09:48.065Z,98338.91
2023-11-26T06:12:16.763Z,98345.80
2023-11-26T06:14:45.158Z,98357.25
2023-11-26T06:17:13.998Z,98358.38
2023-11-26T06:19:42.691Z,98360.21
2023-11-26T06:22:11.472Z,98368.60
2023-11-26T06:24:40.691Z,98370.11
2023-11-26T06:27:09.843Z,98374.61
2023-11-26T06:29:42.794Z,98371.79
2023-11-26T06:32:12.186Z,98372.71
2023-11-26T06:34:40.901Z,98371.19
2023-11-26T06:37:09.560Z,98374.10
2023-11-26T06:39:38.042Z,98378.36
2023-11-26T06:42:06.910Z,98378.55
2023-11-26T06:44:36.083Z,98382.44
2023-11-26T06:47:04.930Z,98388.00
2023-11-26T06:49:33.521Z,98384.20
2023-11-26T06:52:02.791Z,98372.64
2023-11-26T06:54:31.772Z,98382.01
2023-11-26T06:57:01.244Z,98378.97
2023-11-26T06:59:30.049Z,98364.94
2023-11-26T07:01:59.124Z,98375.65
2023-11-26T07:04:28.674Z,98365.61
2023-11-26T07:06:57.893Z,98363.46
2023-11-26T07:09:26.642Z,98360.45
2023-11-26T07:11:55.454Z,98360.00
2023-11-26T07:14:24.271Z,98359.09
2023-11-26T07:16:56.295Z,98359.27
2023-11-26T07:19:25.602Z,98366.56
2023-11-26T07:21:54.358Z,98362.60
2023-11-26T07:24:22.868Z,98363.91
2023-11-26T07:26:51.543Z,98365.59
2023-11-26T07:29:19.959Z,98362.73
2023-11-26T07:31:49.103Z,98359.88
2023-11-26T07:34:18.092Z,98358.13
2023-11-26T07:36:51.876Z,98361.99
2023-11-26T07:39:20.469Z,98356.84
2023-11-26T07:41:49.192Z,98352.05
2023-11-26T07:44:17.934Z,98355.80
2023-11-26T07:46:46.510Z,98361.71
2023-11-26T07:49:16.130Z,98366.61
2023-11-26T07:51:45.106Z,98367.03
2023-11-26T07:54:19.795Z,98368.08
2023-11-26T07:56:54.819Z,98373.48
2023-11-26T07:59:23.470Z,98382.09
2023-11-26T08:01:51.972Z,98384.46
2023-11-26T08:04:21.118Z,98381.73
2023-11-26T08:06:50.947Z,98381.48
2023-11-26T08:09:20.111Z,98382.66
2023-11-26T08:11:48.815Z,98380.42
2023-11-26T08:14:17.509Z,98383.47
2023-11-26T08:16:48.073Z,98383.29
2023-11-26T08:19:19.847Z,98384.86
2023-11-26T08:21:49.363Z,98392.40
2023-11-26T08:24:21.433Z,98394.45
2023-11-26T08:26:50.128Z,98406.82
2023-11-26T08:29:20.685Z,98411.15
2023-11-26T08:31:52.561Z,98412.36
2023-11-26T08:34:23.943Z,98418.45
2023-11-26T08:36:52.687Z,98414.17
2023-11-26T08:39:28.240Z,98407.97
2023-11-26T08:41:58.195Z,98411.04
2023-11-26T08:44:26.978Z,98423.23
2023-11-26T08:46:56.722Z,98432.48
2023-11-26T08:49:26.259Z,98429.55
2023-11-26T08:51:55.757Z,98432.39
2023-11-26T08:54:24.468Z,98428.16
2023-11-26T08:56:53.823Z,98423.98
2023-11-26T08:59:22.516Z,98430.19
2023-11-26T09:01:51.305Z,98435.23
2023-11-26T09:04:19.847Z,98435.60
2023-11-26T09:06:48.289Z,98435.00
2023-11-26T09:09:17.909Z,98438.78
2023-11-26T09:11:46.200Z,98445.98
2023-11-26T09:14:14.898Z,98454.08
2023-11-26T09:16:43.598Z,98455.75
2023-11-26T09:19:12.048Z,98456.98
2023-11-26T09:21:41.091Z,98455.23
2023-11-26T09:24:09.618Z,98459.48
2023-11-26T09:26:38.093Z,98454.30
2023-11-26T09:29:08.770Z,98458.25
2023-11-26T09:31:47.760Z,98467.77
2023-11-26T09:34:16.437Z,98471.25
2023-11-26T09:36:46.452Z,98471.11
2023-11-26T09:39:17.235Z,98466.23
2023-11-26T09:41:45.605Z,98463.71
2023-11-26T09:44:14.859Z,98462.84
2023-11-26T09:46:45.653Z,98458.34
2023-11-26T09:49:14.522Z,98453.28
2023-11-26T09:51:45.144Z,98452.45
2023-11-26T09:54:16.505Z,98456.77
2023-11-26T09:56:46.973Z,98454.63
2023-11-26T09:59:26.465Z,98449.52
2023-11-26T10:01:55.501Z,98441.99
2023-11-26T10:04:24.188Z,98447.96
2023-11-26T10:06:56.861Z,98454.66
2023-11-26T10:09:25.389Z,98453.37
2023-11-26T10:11:59.553Z,98451.92
2023-11-26T10:14:28.262Z,98457.80
2023-11-26T10:16:56.920Z,98457.23
2023-11-26T10:19:30.251Z,98452.75
2023-11-26T10:22:01.365Z,98454.69
2023-11-26T10:24:31.451Z,98455.17
2023-11-26T10:27:01.115Z,98454.55
2023-11-26T10:29:32.554Z,98451.58
2023-11-26T10:32:06.017Z,98449.07
2023-11-26T10:34:38.985Z,98447.33
2023-11-26T10:37:24.641Z,98450.23
2023-11-26T10:39:54.736Z,98444.45
2023-11-26T10:42:24.797Z,98443.97
2023-11-26T10:44:55.516Z,98443.55
2023-11-26T10:47:27.694Z,98444.06
2023-11-26T10:50:01.914Z,98437.70
2023-11-26T10:52:57.474Z,98435.61
2023-11-26T10:55:32.325Z,98430.55
2023-11-26T10:58:13.392Z,98430.91
2023-11-26T11:00:45.469Z,98435.17
2023-11-26T11:03:14.029Z,98439.64
2023-11-26T11:05:43.686Z,98432.80
2023-11-26T11:08:12.762Z,98435.64
2023-11-26T11:10:59.565Z,98435.02
2023-11-26T11:13:29.875Z,98435.62
2023-11-26T11:15:59.541Z,98436.98
2023-11-26T11:18:28.702Z,98434.81
2023-11-26T11:21:07.606Z,98434.90
2023-11-26T11:23:47.081Z,98433.76
2023-11-26T11:26:17.139Z,98431.86
2023-11-26T11:28:51.349Z,98430.86
2023-11-26T11:31:21.480Z,98430.27
2023-11-26T11:33:59.506Z,98427.52
2023-11-26T11:36:48.780Z,98431.55
2023-11-26T11:39:29.486Z,98432.40
2023-11-26T11:42:00.780Z,98431.61
2023-11-26T11:44:32.276Z,98437.85
2023-11-26T11:47:02.667Z,98432.02
2023-11-26T11:49:46.886Z,98429.06
2023-11-26T11:52:16.798Z,98429.85
2023-11-26T11:55:01.148Z,98424.52
2023-11-26T11:57:38.802Z,98425.16
2023-11-26T12:00:28.449Z,98423.02
2023-11-26T12:02:57.318Z,98418.41
2023-11-26T12:05:28.554Z,98418.26
2023-11-26T12:08:00.552Z,98419.18
2023-11-26T12:10:34.943Z,98419.48
2023-11-26T12:13:09.005Z,98418.31
2023-11-26T12:15:42.200Z,98414.23
2023-11-26T12:18:11.500Z,98410.21
2023-11-26T12:20:40.738Z,98408.33
2023-11-26T12:23:09.791Z,98407.41
2023-11-26T12:25:38.613Z,98410.89
2023-11-26T12:28:09.505Z,98402.49
2023-11-26T12:30:39.535Z,98408.15
2023-11-26T12:33:13.785Z,98406.38
2023-11-26T12:35:43.463Z,98406.84
2023-11-26T12:38:12.963Z,98409.94
2023-11-26T12:40:41.968Z,98413.23
2023-11-26T12:43:11.107Z,98409.13
2023-11-26T12:45:39.972Z,98410.13
2023-11-26T12:48:08.633Z,98409.27
2023-11-26T12:50:44.609Z,98406.82
2023-11-26T12:53:14.905Z,98405.92
2023-11-26T12:55:47.243Z,98400.39
2023-11-26T12:58:25.410Z,98399.27
2023-11-26T13:00:54.255Z,98397.99
2023-11-26T13:03:23.535Z,98394.95
2023-11-26T13:05:52.963Z,98394.64
2023-11-26T13:08:23.976Z,98397.39
2023-11-26T13:10:56.976Z,98397.92
2023-11-26T13:13:34.047Z,98400.98
2023-11-26T13:16:06.439Z,98400.50
2023-11-26T13:18:35.366Z,98398.64
2023-11-26T13:21:13.457Z,98404.95
2023-11-26T13:23:42.365Z,98407.55
2023-11-26T13:26:11.514Z,98408.66
2023-11-26T13:28:43.417Z,98407.43
2023-11-26T13:31:11.878Z,98408.91
2023-11-26T13:33:40.489Z,98408.25
2023-11-26T13:36:09.614Z,98407.92
2023-11-26T13:38:38.336Z,98407.81
2023-11-26T13:41:07.381Z,98407.08
2023-11-26T13:43:36.213Z,98407.08
2023-11-26T13:46:06.040Z,98408.64
2023-11-26T13:48:36.647Z,98411.23
2023-11-26T13:51:05.695Z,98409.70
2023-11-26T13:53:35.431Z,98405.01
2023-11-26T13:56:05.797Z,98406.26
2023-11-26T13:58:34.613Z,98406.65
2023-11-26T14:01:04.521Z,98411.34
2023-11-26T14:03:34.968Z,98410.84
2023-11-26T14:06:04.562Z,98416.73
2023-11-26T14:08:33.856Z,98417.67
2023-11-26T14:11:02.607Z,98417.02
2023-11-26T14:13:32.159Z,98419.16
2023-11-26T14:16:01.037Z,98416.27
2023-11-26T14:18:30.757Z,98415.81
2023-11-26T14:21:00.246Z,98419.06
2023-11-26T14:23:29.349Z,98417.11
2023-11-26T14:25:58.252Z,98419.04
2023-11-26T14:28:28.011Z,98422.88
2023-11-26T14:30:57.801Z,98426.44
2023-11-26T14:33:26.730Z,98431.89
2023-11-26T14:35:55.936Z,98432.68
2023-11-26T14:38:25.202Z,98433.35
2023-11-26T14:40:54.417Z,98432.17
2023-11-26T14:43:23.784Z,98435.91
2023-11-26T14:45:52.964Z,98439.20
2023-11-26T14:48:22.709Z,98439.42
2023-11-26T14:50:52.746Z,98444.87
2023-11-26T14:53:21.936Z,98448.14
2023-11-26T14:55:50.781Z,98449.25
2023-11-26T14:58:21.134Z,98449.77
2023-11-26T15:00:51.100Z,98451.48
2023-11-26T15:03:19.790Z,98451.98
2023-11-26T15:05:48.509Z,98457.37
2023-11-26T15:08:17.560Z,98454.91
2023-11-26T15:10:48.006Z,98448.66
2023-11-26T15:13:17.386Z,98456.25
2023-11-26T15:15:46.376Z,98463.35
2023-11-26T15:18:15.477Z,98472.35
2023-11-26T15:20:44.270Z,98473.84
2023-11-26T15:23:13.343Z,98473.81
2023-11-26T15:25:42.341Z,98480.04
2023-11-26T15:28:12.544Z,98484.45
2023-11-26T15:30:41.313Z,98484.88
2023-11-26T15:33:10.861Z,98487.35
2023-11-26T15:35:39.620Z,98489.25
2023-11-26T15:38:11.359Z,98488.61
2023-11-26T15:40:42.975Z,98494.48
2023-11-26T15:43:12.116Z,98495.01
2023-11-26T15:45:41.172Z,98498.83
2023-11-26T15:48:10.444Z,98503.00
2023-11-26T15:50:39.938Z,98509.84
2023-11-26T15:53:08.760Z,98513.31
2023-11-26T15:55:38.223Z,98517.10
2023-11-26T15:58:07.458Z,98523.73
2023-11-26T16:00:36.855Z,98535.24
2023-11-26T16:03:06.558Z,98536.13
2023-11-26T16:05:37.284Z,98544.80
2023-11-26T16:08:06.998Z,98553.54
2023-11-26T16:10:35.503Z,98562.46
2023-11-26T16:13:05.110Z,98563.17
2023-11-26T16:15:33.786Z,98563.66
2023-11-26T16:18:03.085Z,98567.16
2023-11-26T16:20:36.064Z,98569.39
2023-11-26T16:23:05.380Z,98570.98
2023-11-26T16:25:34.532Z,98570.40
2023-11-26T16:28:03.091Z,98569.27
2023-11-26T16:30:31.974Z,98568.17
2023-11-26T16:33:00.920Z,98570.30
2023-11-26T16:35:31.286Z,98575.19
2023-11-26T16:38:00.060Z,98578.62
2023-11-26T16:40:29.132Z,98578.45
2023-11-26T16:42:58.265Z,98578.02
2023-11-26T16:45:27.270Z,98579.33
2023-11-26T16:47:57.357Z,98586.48
2023-11-26T16:50:26.195Z,98589.54
2023-11-26T16:52:55.098Z,98592.04
2023-11-26T16:55:24.434Z,98596.09
2023-11-26T16:57:54.481Z,98596.93
2023-11-26T17:00:24.647Z,98596.04
2023-11-26T17:02:54.343Z,98597.43
2023-11-26T17:05:23.857Z,98602.30
2023-11-26T17:07:52.656Z,98603.13
2023-11-26T17:10:21.421Z,98607.54
2023-11-26T17:12:51.402Z,98607.61
2023-11-26T17:15:22.929Z,98614.80
2023-11-26T17:17:52.006Z,98616.85
2023-11-26T17:20:21.708Z,98621.23
2023-11-26T17:22:50.604Z,98620.00
2023-11-26T17:25:19.819Z,98624.94
2023-11-26T17:27:50.005Z,98629.85
2023-11-26T17:30:18.891Z,98636.96
2023-11-26T17:32:47.476Z,98640.14
2023-11-26T17:35:16.466Z,98642.78
2023-11-26T17:37:45.411Z,98642.36
2023-11-26T17:40:15.114Z,98647.05
2023-11-26T17:42:44.050Z,98646.42
2023-11-26T17:45:13.846Z,98648.10
2023-11-26T17:47:43.757Z,98645.97
2023-11-26T17:50:13.874Z,98648.63
2023-11-26T17:52:50.440Z,98649.59
2023-11-26T17:55:23.707Z,98651.52
2023-11-26T17:57:52.900Z,98654.83
2023-11-26T18:00:21.920Z,98652.05
2023-11-26T18:02:52.136Z,98652.31
2023-11-26T18:05:22.084Z,98656.69
2023-11-26T18:07:51.442Z,98666.20
2023-11-26T18:10:20.438Z,98667.10
2023-11-26T18:12:49.405Z,98668.08
2023-11-26T18:15:20.104Z,98665.17
2023-11-26T18:17:51.006Z,98668.27
2023-11-26T18:20:20.355Z,98673.54
2023-11-26T18:22:49.500Z,98673.14
2023-11-26T18:25:19.551Z,98674.92
2023-11-26T18:27:48.490Z,98675.64
2023-11-26T18:30:17.704Z,98674.21
2023-11-26T18:32:46.804Z,98674.62
2023-11-26T18:35:16.258Z,98679.47
2023-11-26T18:37:45.897Z,98681.45
2023-11-26T18:40:14.746Z,98676.61
2023-11-26T18:42:47.792Z,98677.09
2023-11-26T18:45:19.831Z,98679.27
2023-11-26T18:47:48.724Z,98680.52
2023-11-26T18:50:19.189Z,98682.71
2023-11-26T18:52:48.975Z,98683.73
2023-11-26T18:55:19.741Z,98681.67
2023-11-26T18:57:48.954Z,98685.70
2023-11-26T19:00:18.053Z,98690.09
2023-11-26T19:02:47.268Z,98685.83
2023-11-26T19:05:16.217Z,98688.98
2023-11-26T19:07:45.416Z,98691.73
2023-11-26T19:10:14.748Z,98691.05
2023-11-26T19:12:44.006Z,98695.16
2023-11-26T19:15:13.306Z,98700.90
2023-11-26T19:17:43.149Z,98700.25
2023-11-26T19:20:12.861Z,98699.46
2023-11-26T19:22:42.536Z,98698.92
2023-11-26T19:25:11.896Z,98700.70
2023-11-26T19:27:41.319Z,98701.64
2023-11-26T19:30:10.663Z,98701.98
2023-11-26T19:32:39.650Z,98706.94
2023-11-26T19:35:08.938Z,98710.06
2023-11-26T19:37:38.892Z,98716.94
2023-11-26T19:40:10.304Z,98720.38
2023-11-26T19:42:39.147Z,98719.28
2023-11-26T19:45:08.989Z,98718.96
2023-11-26T19:47:38.981Z,98723.45
2023-11-26T19:50:08.255Z,98724.33
2023-11-26T19:52:37.640Z,98726.66
2023-11-26T19:55:07.307Z,98734.56
2023-11-26T19:57:38.032Z,98738.17
2023-11-26T20:00:09.089Z,98740.11
2023-11-26T20:02:38.546Z,98737.52
2023-11-26T20:05:08.348Z,98742.89
2023-11-26T20:07:37.563Z,98742.11
2023-11-26T20:10:10.415Z,98744.48
2023-11-26T20:12:39.706Z,98744.76
2023-11-26T20:15:10.349Z,98739.73
2023-11-26T20:17:41.365Z,98744.81
2023-11-26T20:20:11.700Z,98747.97
2023-11-26T20:22:41.234Z,98746.65
2023-11-26T20:25:12.958Z,98748.33
2023-11-26T20:27:43.659Z,98748.88
2023-11-26T20:30:14.159Z,98751.05
2023-11-26T20:32:43.438Z,98750.83
2023-11-26T20:35:12.701Z,98752.95
2023-11-26T20:37:44.407Z,98749.83
2023-11-26T20:40:14.993Z,98747.95
2023-11-26T20:42:46.381Z,98744.63
2023-11-26T20:45:16.840Z,98740.05
2023-11-26T20:47:47.563Z,98744.38
2023-11-26T20:50:17.229Z,98742.94
2023-11-26T20:52:47.264Z,98743.51
2023-11-26T20:55:17.489Z,98744.73
2023-11-26T20:57:47.055Z,98749.44
2023-11-26T21:00:17.428Z,98752.00
2023-11-26T21:02:49.144Z,98755.80
2023-11-26T21:05:19.893Z,98755.92
2023-11-26T21:07:48.887Z,98755.20
2023-11-26T21:10:18.022Z,98762.39
2023-11-26T21:12:47.297Z,98757.96
2023-11-26T21:15:15.968Z,98762.30
2023-11-26T21:17:44.623Z,98758.23
2023-11-26T21:20:13.307Z,98755.15
2023-11-26T21:22:43.046Z,98755.63
2023-11-26T21:25:12.012Z,98753.98
2023-11-26T21:27:41.574Z,98753.83
2023-11-26T21:30:11.199Z,98761.70
2023-11-26T21:32:40.341Z,98767.59
2023-11-26T21:35:09.666Z,98772.73
2023-11-26T21:37:38.370Z,98771.77
2023-11-26T21:40:09.362Z,98770.95
2023-11-26T21:42:38.296Z,98765.72
2023-11-26T21:45:07.672Z,98766.66
2023-11-26T21:47:36.776Z,98772.34
2023-11-26T21:50:06.758Z,98767.08
2023-11-26T21:52:35.293Z,98765.45
2023-11-26T21:55:04.866Z,98766.02
2023-11-26T21:57:33.862Z,98759.38
2023-11-26T22:00:04.121Z,98759.33
2023-11-26T22:02:33.520Z,98754.85
2023-11-26T22:05:02.237Z,98757.71
2023-11-26T22:07:30.833Z,98763.38
2023-11-26T22:10:00.009Z,98763.70
2023-11-26T22:12:28.855Z,98762.30
2023-11-26T22:14:57.465Z,98758.14
2023-11-26T22:17:26.447Z,98758.45
2023-11-26T22:19:54.945Z,98762.02
2023-11-26T22:22:24.429Z,98759.52
2023-11-26T22:24:57.302Z,98754.84
2023-11-26T22:27:26.280Z,98754.27
2023-11-26T22:29:55.013Z,98757.79
2023-11-26T22:32:23.608Z,98761.34
2023-11-26T22:34:52.634Z,98764.77
2023-11-26T22:37:21.355Z,98760.95
2023-11-26T22:39:50.693Z,98763.73
2023-11-26T22:42:19.849Z,98765.73
2023-11-26T22:44:48.603Z,98767.88
2023-11-26T22:47:17.366Z,98765.43
2023-11-26T22:49:46.920Z,98760.69
2023-11-26T22:52:15.266Z,98759.52
2023-11-26T22:54:43.966Z,98758.04
2023-11-26T22:57:12.898Z,98761.94
2023-11-26T22:59:41.641Z,98764.77
2023-11-26T23:02:10.363Z,98760.57
2023-11-26T23:04:39.301Z,98760.19
2023-11-26T23:07:07.820Z,98757.13
2023-11-26T23:09:36.514Z,98757.89
2023-11-26T23:12:05.903Z,98761.99
2023-11-26T23:14:35.143Z,98758.90
2023-11-26T23:17:03.974Z,98759.80
2023-11-26T23:19:32.653Z,98760.34
2023-11-26T23:22:01.800Z,98757.89
2023-11-26T23:24:30.400Z,98758.24
2023-11-26T23:27:00.361Z,98759.93
2023-11-26T23:29:28.876Z,98758.92
2023-11-26T23:31:57.377Z,98762.84
2023-11-26T23:34:26.195Z,98758.46
2023-11-26T23:36:54.771Z,98753.86
2023-11-26T23:39:23.304Z,98751.13
2023-11-26T23:41:51.919Z,98754.38
2023-11-26T23:44:20.409Z,98753.98
2023-11-26T23:46:48.787Z,98752.70
2023-11-26T23:49:17.252Z,98749.21
2023-11-26T23:51:45.737Z,98749.34
2023-11-26T23:54:14.689Z,98746.11
2023-11-26T23:56:43.282Z,98738.31
2023-11-26T23:59:12.494Z,98735.17
